^^
Station Historical Data
Daily Summary for February 11, 2019 Units:  Metric    English   Both
« Previous Day
Next Day »
Daily Weekly Monthly Yearly Custom
  High: Low: Average:
Temperature: -12.9 °C -23.2 °C -16.7 °C
Dew Point: -14.5 °C -25.3 °C -18.5 °C
Humidity: 89% 83% 86%
Wind Speed: 30.6km/h 0km/h 13.8km/h
Wind Gust: 38.6km/h - -
Wind- - SE
Pressure: 1025.3 hPa 1016.5 hPa -
Precipitation: 0 mm    
Historical Graphs
 
 
Tabular Data for February 11, 2019
Time Temperature Dew Point Pressure Wind Wind Speed Wind Gust Humidity Rainfall Rate (Hourly) solar Conditions
00:04 -23.2 °C -25.3 °C 1025.3 hPa ESE 11.3 km/h 22.5 km/h 83% 0 mm 0.00 W/m2
00:09 -23 °C -25.1 °C 1025.3 hPa ESE 16.1 km/h 20.9 km/h 83% 0 mm 0.00 W/m2
00:14 -22.8 °C -24.9 °C 1025.3 hPa ESE 11.3 km/h 19.3 km/h 83% 0 mm 0.00 W/m2
00:19 -22.6 °C -24.7 °C 1024.9 hPa East 12.9 km/h 20.9 km/h 83% 0 mm 0.00 W/m2
00:24 -22.4 °C -24.5 °C 1024.9 hPa ESE 16.1 km/h 20.9 km/h 83% 0 mm 0.00 W/m2
00:29 -22.2 °C -24.3 °C 1024.9 hPa East 12.9 km/h 19.3 km/h 83% 0 mm 0.00 W/m2
00:34 -22.1 °C -24.2 °C 1024.9 hPa ESE 17.7 km/h 20.9 km/h 83% 0 mm 0.00 W/m2
00:39 -22.1 °C -24.2 °C 1024.9 hPa East 14.5 km/h 20.9 km/h 83% 0 mm 0.00 W/m2
00:44 -22 °C -24.1 °C 1024.6 hPa ESE 8 km/h 20.9 km/h 83% 0 mm 0.00 W/m2
00:49 -22 °C -24.1 °C 1024.6 hPa ESE 12.9 km/h 20.9 km/h 83% 0 mm 0.00 W/m2
00:54 -21.9 °C -24.1 °C 1024.6 hPa East 16.1 km/h 17.7 km/h 83% 0 mm 0.00 W/m2
00:59 -21.9 °C -24 °C 1024.6 hPa East 14.5 km/h 22.5 km/h 83% 0 mm 0.00 W/m2
01:04 -21.9 °C -24 °C 1024.3 hPa ESE 12.9 km/h 22.5 km/h 83% 0 mm 0.00 W/m2
01:09 -21.9 °C -24.1 °C 1024.3 hPa ESE 16.1 km/h 22.5 km/h 83% 0 mm 0.00 W/m2
01:14 -21.9 °C -24.1 °C 1024.3 hPa ESE 19.3 km/h 22.5 km/h 83% 0 mm 0.00 W/m2
01:19 -22 °C -24.1 °C 1024.3 hPa ESE 12.9 km/h 24.1 km/h 83% 0 mm 0.00 W/m2
01:24 -22 °C -24.1 °C 1024.3 hPa East 16.1 km/h 24.1 km/h 83% 0 mm 0.00 W/m2
01:29 -22 °C -24.1 °C 1024.3 hPa East 17.7 km/h 24.1 km/h 83% 0 mm 0.00 W/m2
01:34 -22.1 °C -24.2 °C 1024.3 hPa East 22.5 km/h 24.1 km/h 83% 0 mm 0.00 W/m2
01:39 -22.1 °C -24.2 °C 1023.9 hPa East 16.1 km/h 25.7 km/h 83% 0 mm 0.00 W/m2
01:44 -22.1 °C -24.2 °C 1023.9 hPa East 14.5 km/h 25.7 km/h 83% 0 mm 0.00 W/m2
01:49 -22.1 °C -24.2 °C 1023.9 hPa East 14.5 km/h 25.7 km/h 83% 0 mm 0.00 W/m2
01:54 -22.1 °C -24.2 °C 1023.6 hPa East 16.1 km/h 20.9 km/h 83% 0 mm 0.00 W/m2
01:59 -22 °C -24.1 °C 1023.6 hPa East 22.5 km/h 22.5 km/h 83% 0 mm 0.00 W/m2
02:04 -22 °C -24.1 °C 1023.2 hPa East 17.7 km/h 24.1 km/h 83% 0 mm 0.00 W/m2
02:09 -21.9 °C -24.1 °C 1022.9 hPa East 22.5 km/h 27.4 km/h 83% 0 mm 0.00 W/m2
02:14 -21.9 °C -24.1 °C 1022.9 hPa East 20.9 km/h 27.4 km/h 83% 0 mm 0.00 W/m2
02:19 -21.9 °C -24 °C 1022.9 hPa ESE 16.1 km/h 25.7 km/h 83% 0 mm 0.00 W/m2
02:24 -21.8 °C -23.9 °C 1022.6 hPa ESE 16.1 km/h 24.1 km/h 83% 0 mm 0.00 W/m2
02:29 -21.8 °C -23.9 °C 1022.6 hPa ENE 16.1 km/h 25.7 km/h 83% 0 mm 0.00 W/m2
02:34 -21.7 °C -23.8 °C 1022.6 hPa ENE 19.3 km/h 29 km/h 83% 0 mm 0.00 W/m2
02:39 -21.8 °C -23.9 °C 1022.6 hPa East 22.5 km/h 29 km/h 83% 0 mm 0.00 W/m2
02:44 -21.9 °C -24.1 °C 1022.6 hPa ENE 19.3 km/h 30.6 km/h 83% 0 mm 0.00 W/m2
02:49 -22 °C -24.1 °C 1022.6 hPa East 20.9 km/h 32.2 km/h 83% 0 mm 0.00 W/m2
02:54 -22.1 °C -24.2 °C 1022.6 hPa East 14.5 km/h 32.2 km/h 83% 0 mm 0.00 W/m2
02:59 -22.1 °C -24.2 °C 1022.9 hPa East 22.5 km/h 29 km/h 83% 0 mm 0.00 W/m2
03:04 -22.1 °C -24.2 °C 1022.9 hPa ENE 14.5 km/h 27.4 km/h 83% 0 mm 0.00 W/m2
03:09 -22 °C -24.1 °C 1022.6 hPa East 17.7 km/h 25.7 km/h 83% 0 mm 0.00 W/m2
03:14 -21.8 °C -23.9 °C 1022.6 hPa East 20.9 km/h 25.7 km/h 83% 0 mm 0.00 W/m2
03:19 -21.7 °C -23.8 °C 1022.9 hPa East 22.5 km/h 24.1 km/h 83% 0 mm 0.00 W/m2
03:24 -21.6 °C -23.6 °C 1022.6 hPa ENE 16.1 km/h 25.7 km/h 84% 0 mm 0.00 W/m2
03:29 -21.6 °C -23.6 °C 1022.6 hPa East 22.5 km/h 27.4 km/h 84% 0 mm 0.00 W/m2
03:34 -21.4 °C -23.4 °C 1022.2 hPa East 20.9 km/h 27.4 km/h 84% 0 mm 0.00 W/m2
03:39 -21.4 °C -23.4 °C 1022.2 hPa East 12.9 km/h 30.6 km/h 84% 0 mm 0.00 W/m2
03:44 -21.3 °C -23.3 °C 1021.9 hPa East 25.7 km/h 33.8 km/h 84% 0 mm 0.00 W/m2
03:49 -21.3 °C -23.3 °C 1021.9 hPa East 22.5 km/h 33.8 km/h 84% 0 mm 0.00 W/m2
03:54 -21.2 °C -23.2 °C 1021.6 hPa East 24.1 km/h 29 km/h 84% 0 mm 0.00 W/m2
03:59 -21.1 °C -23.1 °C 1021.2 hPa East 25.7 km/h 35.4 km/h 84% 0 mm 0.00 W/m2
04:04 -20.9 °C -22.9 °C 1021.2 hPa ENE 17.7 km/h 35.4 km/h 84% 0 mm 0.00 W/m2
04:09 -20.9 °C -22.9 °C 1020.9 hPa East 30.6 km/h 32.2 km/h 84% 0 mm 0.00 W/m2
04:14 -20.7 °C -22.7 °C 1020.9 hPa ENE 22.5 km/h 32.2 km/h 84% 0 mm 0.00 W/m2
04:19 -20.6 °C -22.6 °C 1020.5 hPa ENE 20.9 km/h 35.4 km/h 84% 0 mm 0.00 W/m2
04:24 -20.4 °C -22.4 °C 1020.5 hPa East 17.7 km/h 35.4 km/h 84% 0 mm 0.00 W/m2
04:29 -20.3 °C -22.3 °C 1020.2 hPa East 25.7 km/h 33.8 km/h 84% 0 mm 0.00 W/m2
04:34 -20.2 °C -22.2 °C 1019.9 hPa ENE 24.1 km/h 32.2 km/h 84% 0 mm 0.00 W/m2
04:39 -20.1 °C -22.1 °C 1019.5 hPa ENE 20.9 km/h 30.6 km/h 84% 0 mm 0.00 W/m2
04:44 -20.2 °C -22.2 °C 1019.5 hPa ENE 29 km/h 35.4 km/h 84% 0 mm 0.00 W/m2
04:49 -20.1 °C -22.1 °C 1019.5 hPa East 20.9 km/h 35.4 km/h 84% 0 mm 0.00 W/m2
04:54 -19.9 °C -21.8 °C 1019.5 hPa East 27.4 km/h 33.8 km/h 85% 0 mm 0.00 W/m2
04:59 -19.8 °C -21.7 °C 1019.2 hPa East 24.1 km/h 33.8 km/h 85% 0 mm 0.00 W/m2
05:04 -19.7 °C -21.7 °C 1019.2 hPa East 17.7 km/h 38.6 km/h 84% 0 mm 0.00 W/m2
05:09 -19.6 °C -21.5 °C 1019.2 hPa East 24.1 km/h 38.6 km/h 85% 0 mm 0.00 W/m2
05:14 -19.5 °C -21.4 °C 1019.5 hPa East 20.9 km/h 37 km/h 85% 0 mm 0.00 W/m2
05:19 -19.3 °C -21.2 °C 1019.2 hPa ESE 14.5 km/h 32.2 km/h 85% 0 mm 0.00 W/m2
05:24 -19.2 °C -21.1 °C 1019.2 hPa ESE 19.3 km/h 33.8 km/h 85% 0 mm 0.00 W/m2
05:29 -18.9 °C -20.8 °C 1019.2 hPa ESE 19.3 km/h 33.8 km/h 85% 0 mm 0.00 W/m2
05:34 -18.8 °C -20.7 °C 1019.2 hPa ESE 14.5 km/h 29 km/h 85% 0 mm 0.00 W/m2
05:39 -18.7 °C -20.6 °C 1019.2 hPa ESE 14.5 km/h 25.7 km/h 85% 0 mm 0.00 W/m2
05:44 -18.6 °C -20.5 °C 1019.2 hPa ESE 16.1 km/h 27.4 km/h 85% 0 mm 0.00 W/m2
05:49 -18.5 °C -20.4 °C 1019.2 hPa ESE 14.5 km/h 27.4 km/h 85% 0 mm 0.00 W/m2
05:54 -18.4 °C -20.3 °C 1019.2 hPa ESE 16.1 km/h 27.4 km/h 85% 0 mm 0.00 W/m2
05:59 -18.3 °C -20.2 °C 1019.2 hPa ESE 24.1 km/h 27.4 km/h 85% 0 mm 0.00 W/m2
06:04 -18.2 °C -20.1 °C 1019.2 hPa East 24.1 km/h 29 km/h 85% 0 mm 0.00 W/m2
06:09 -18.2 °C -20.1 °C 1019.2 hPa ESE 19.3 km/h 29 km/h 85% 0 mm 0.00 W/m2
06:14 -18.1 °C -20 °C 1019.2 hPa East 24.1 km/h 27.4 km/h 85% 0 mm 0.00 W/m2
06:19 -18.1 °C -19.9 °C 1019.2 hPa ESE 16.1 km/h 25.7 km/h 85% 0 mm 0.00 W/m2
06:24 -18.1 °C -19.9 °C 1019.2 hPa ESE 17.7 km/h 25.7 km/h 85% 0 mm 0.00 W/m2
06:29 -18.1 °C -19.9 °C 1019.2 hPa ESE 17.7 km/h 25.7 km/h 85% 0 mm 0.00 W/m2
06:34 -18.1 °C -19.9 °C 1019.2 hPa SE 14.5 km/h 25.7 km/h 85% 0 mm 0.00 W/m2
06:39 -18.1 °C -19.9 °C 1019.2 hPa ESE 16.1 km/h 25.7 km/h 85% 0 mm 0.00 W/m2
06:44 -18 °C -19.9 °C 1018.8 hPa ESE 20.9 km/h 25.7 km/h 85% 0 mm 0.00 W/m2
06:49 -18 °C -19.9 °C 1018.8 hPa SE 19.3 km/h 29 km/h 85% 0 mm 0.00 W/m2
06:54 -18.1 °C -19.9 °C 1018.8 hPa ESE 22.5 km/h 29 km/h 85% 0 mm 0.00 W/m2
06:59 -18 °C -19.9 °C 1018.8 hPa SE 14.5 km/h 27.4 km/h 85% 0 mm 0.00 W/m2
07:04 -17.9 °C -19.7 °C 1018.8 hPa ESE 17.7 km/h 29 km/h 86% 0 mm 0.00 W/m2
07:09 -18 °C -19.8 °C 1018.8 hPa East 29 km/h 29 km/h 86% 0 mm 0.00 W/m2
07:14 -17.9 °C -19.8 °C 1018.5 hPa East 29 km/h 35.4 km/h 85% 0 mm 0.00 W/m2
07:19 -17.9 °C -19.8 °C 1018.5 hPa ESE 24.1 km/h 37 km/h 85% 0 mm 0.00 W/m2
07:24 -17.9 °C -19.8 °C 1018.5 hPa ESE 16.1 km/h 37 km/h 85% 0 mm 0.00 W/m2
07:29 -17.8 °C -19.7 °C 1018.5 hPa ESE 12.9 km/h 30.6 km/h 85% 0 mm 0.00 W/m2
07:34 -17.8 °C -19.6 °C 1018.2 hPa East 17.7 km/h 30.6 km/h 86% 0 mm 0.00 W/m2
07:39 -17.7 °C -19.5 °C 1018.2 hPa East 16.1 km/h 30.6 km/h 86% 0 mm 0.00 W/m2
07:44 -17.7 °C -19.5 °C 1018.5 hPa East 29 km/h 35.4 km/h 86% 0 mm 0.00 W/m2
07:49 -17.7 °C -19.4 °C 1018.2 hPa East 24.1 km/h 35.4 km/h 86% 0 mm 0.00 W/m2
07:54 -17.6 °C -19.4 °C 1018.2 hPa East 17.7 km/h 35.4 km/h 86% 0 mm 0.00 W/m2
07:59 -17.6 °C -19.3 °C 1018.2 hPa ESE 27.4 km/h 35.4 km/h 86% 0 mm 0.00 W/m2
08:04 -17.6 °C -19.3 °C 1018.2 hPa ESE 24.1 km/h 30.6 km/h 86% 0 mm 0.00 W/m2
08:09 -17.5 °C -19.3 °C 1018.5 hPa East 16.1 km/h 29 km/h 86% 0 mm 7.00 W/m2
08:14 -17.4 °C -19.2 °C 1018.5 hPa East 24.1 km/h 29 km/h 86% 0 mm 11.00 W/m2
08:19 -17.3 °C -19.1 °C 1018.5 hPa East 17.7 km/h 30.6 km/h 86% 0 mm 11.00 W/m2
08:24 -17.3 °C -19.1 °C 1018.5 hPa ESE 22.5 km/h 30.6 km/h 86% 0 mm 12.00 W/m2
08:29 -17.3 °C -19.1 °C 1018.5 hPa East 16.1 km/h 29 km/h 86% 0 mm 14.00 W/m2
08:34 -17.3 °C -19.1 °C 1018.8 hPa East 17.7 km/h 27.4 km/h 86% 0 mm 14.00 W/m2
08:39 -17.3 °C -19.1 °C 1018.8 hPa ESE 11.3 km/h 27.4 km/h 86% 0 mm 11.00 W/m2
08:44 -17.2 °C -19 °C 1018.8 hPa East 11.3 km/h 22.5 km/h 86% 0 mm 11.00 W/m2
08:49 -17.2 °C -18.9 °C 1018.8 hPa ENE 11.3 km/h 24.1 km/h 86% 0 mm 14.00 W/m2
08:54 -17.1 °C -18.9 °C 1018.8 hPa ESE 19.3 km/h 24.1 km/h 86% 0 mm 18.00 W/m2
08:59 -17.1 °C -18.8 °C 1018.8 hPa East 14.5 km/h 24.1 km/h 86% 0 mm 30.00 W/m2
09:04 -17 °C -18.8 °C 1018.8 hPa East 17.7 km/h 24.1 km/h 86% 0 mm 32.00 W/m2
09:09 -16.9 °C -18.7 °C 1018.5 hPa East 12.9 km/h 22.5 km/h 86% 0 mm 32.00 W/m2
09:14 -16.9 °C -18.7 °C 1018.8 hPa East 17.7 km/h 25.7 km/h 86% 0 mm 35.00 W/m2
09:19 -16.9 °C -18.7 °C 1018.8 hPa East 9.7 km/h 25.7 km/h 86% 0 mm 39.00 W/m2
09:24 -16.9 °C -18.7 °C 1018.5 hPa East 20.9 km/h 22.5 km/h 86% 0 mm 42.00 W/m2
09:29 -16.9 °C -18.7 °C 1018.5 hPa East 20.9 km/h 25.7 km/h 86% 0 mm 53.00 W/m2
09:34 -16.8 °C -18.6 °C 1018.8 hPa East 20.9 km/h 29 km/h 86% 0 mm 65.00 W/m2
09:39 -16.8 °C -18.6 °C 1018.5 hPa ESE 16.1 km/h 29 km/h 86% 0 mm 74.00 W/m2
09:44 -16.7 °C -18.5 °C 1018.8 hPa East 17.7 km/h 25.7 km/h 86% 0 mm 84.00 W/m2
09:49 -16.7 °C -18.4 °C 1018.5 hPa East 20.9 km/h 27.4 km/h 86% 0 mm 77.00 W/m2
09:54 -16.7 °C -18.4 °C 1018.5 hPa ENE 14.5 km/h 27.4 km/h 86% 0 mm 84.00 W/m2
09:59 -16.7 °C -18.6 °C 1018.5 hPa East 20.9 km/h 27.4 km/h 85% 0 mm 98.00 W/m2
10:04 -16.6 °C -18.6 °C 1018.5 hPa East 16.1 km/h 27.4 km/h 85% 0 mm 88.00 W/m2
10:09 -16.6 °C -18.6 °C 1018.5 hPa East 16.1 km/h 27.4 km/h 85% 0 mm 81.00 W/m2
10:14 -16.6 °C -18.6 °C 1018.5 hPa East 20.9 km/h 30.6 km/h 85% 0 mm 81.00 W/m2
10:19 -16.6 °C -18.4 °C 1018.5 hPa East 16.1 km/h 30.6 km/h 86% 0 mm 84.00 W/m2
10:24 -16.6 °C -18.3 °C 1018.5 hPa ESE 16.1 km/h 30.6 km/h 86% 0 mm 88.00 W/m2
10:29 -16.5 °C -18.3 °C 1018.5 hPa East 16.1 km/h 25.7 km/h 86% 0 mm 90.00 W/m2
10:34 -16.4 °C -18.2 °C 1018.2 hPa East 22.5 km/h 27.4 km/h 86% 0 mm 90.00 W/m2
10:39 -16.5 °C -18.3 °C 1018.2 hPa East 14.5 km/h 27.4 km/h 86% 0 mm 95.00 W/m2
10:44 -16.4 °C -18.2 °C 1018.2 hPa East 16.1 km/h 25.7 km/h 86% 0 mm 98.00 W/m2
10:49 -16.4 °C -18.2 °C 1017.8 hPa ENE 27.4 km/h 30.6 km/h 86% 0 mm 105.00 W/m2
10:54 -16.3 °C -18.1 °C 1017.8 hPa East 17.7 km/h 30.6 km/h 86% 0 mm 109.00 W/m2
10:59 -16.3 °C -18.1 °C 1017.8 hPa ENE 20.9 km/h 30.6 km/h 86% 0 mm 109.00 W/m2
11:04 -16.3 °C -18.1 °C 1017.5 hPa East 11.3 km/h 30.6 km/h 86% 0 mm 118.00 W/m2
11:09 -16.2 °C -18 °C 1017.5 hPa NNE 14.5 km/h 33.8 km/h 86% 0 mm 116.00 W/m2
11:14 -16.2 °C -17.9 °C 1017.5 hPa East 22.5 km/h 33.8 km/h 86% 0 mm 116.00 W/m2
11:19 -16.1 °C -17.9 °C 1017.5 hPa ESE 16.1 km/h 30.6 km/h 86% 0 mm 114.00 W/m2
11:24 -16.1 °C -17.9 °C 1017.5 hPa East 29 km/h 30.6 km/h 86% 0 mm 113.00 W/m2
11:29 -16.2 °C -17.9 °C 1017.5 hPa ENE 16.1 km/h 35.4 km/h 86% 0 mm 116.00 W/m2
11:34 -16.1 °C -17.8 °C 1017.5 hPa East 22.5 km/h 37 km/h 87% 0 mm 113.00 W/m2
11:39 -16 °C -17.8 °C 1017.5 hPa ENE 25.7 km/h 37 km/h 86% 0 mm 114.00 W/m2
11:44 -15.9 °C -17.7 °C 1017.5 hPa ENE 20.9 km/h 35.4 km/h 86% 0 mm 118.00 W/m2
11:49 -15.8 °C -17.5 °C 1017.5 hPa East 20.9 km/h 33.8 km/h 87% 0 mm 125.00 W/m2
11:54 -15.7 °C -17.4 °C 1017.2 hPa East 17.7 km/h 32.2 km/h 87% 0 mm 132.00 W/m2
11:59 -15.6 °C -17.3 °C 1017.5 hPa East 20.9 km/h 33.8 km/h 87% 0 mm 134.00 W/m2
12:04 -15.5 °C -17.2 °C 1017.2 hPa East 17.7 km/h 35.4 km/h 87% 0 mm 135.00 W/m2
12:09 -15.3 °C -17 °C 1017.5 hPa ESE 20.9 km/h 35.4 km/h 87% 0 mm 132.00 W/m2
12:14 -15.3 °C -17 °C 1017.5 hPa ESE 19.3 km/h 33.8 km/h 87% 0 mm 134.00 W/m2
12:19 -15.3 °C -16.9 °C 1017.2 hPa East 22.5 km/h 35.4 km/h 87% 0 mm 142.00 W/m2
12:24 -15.2 °C -16.9 °C 1017.2 hPa East 22.5 km/h 35.4 km/h 87% 0 mm 142.00 W/m2
12:29 -15.2 °C -16.9 °C 1017.2 hPa East 27.4 km/h 32.2 km/h 87% 0 mm 142.00 W/m2
12:34 -15.3 °C -16.9 °C 1017.2 hPa East 22.5 km/h 33.8 km/h 87% 0 mm 137.00 W/m2
12:39 -15.2 °C -16.9 °C 1017.2 hPa ENE 20.9 km/h 33.8 km/h 87% 0 mm 134.00 W/m2
12:44 -15.1 °C -16.8 °C 1017.2 hPa East 20.9 km/h 29 km/h 87% 0 mm 125.00 W/m2
12:49 -15.1 °C -16.7 °C 1017.2 hPa East 24.1 km/h 30.6 km/h 87% 0 mm 114.00 W/m2
12:54 -15.1 °C -16.7 °C 1017.2 hPa East 22.5 km/h 30.6 km/h 87% 0 mm 114.00 W/m2
12:59 -15 °C -16.7 °C 1017.2 hPa East 14.5 km/h 29 km/h 87% 0 mm 116.00 W/m2
13:04 -14.8 °C -16.5 °C 1016.8 hPa ESE 12.9 km/h 29 km/h 87% 0 mm 120.00 W/m2
13:09 -14.8 °C -16.4 °C 1017.2 hPa East 17.7 km/h 27.4 km/h 87% 0 mm 116.00 W/m2
13:14 -14.7 °C -16.3 °C 1017.2 hPa ENE 14.5 km/h 25.7 km/h 87% 0 mm 118.00 W/m2
13:19 -14.7 °C -16.3 °C 1017.2 hPa East 14.5 km/h 24.1 km/h 87% 0 mm 121.00 W/m2
13:24 -14.6 °C -16.3 °C 1017.2 hPa East 29 km/h 29 km/h 87% 0 mm 120.00 W/m2
13:29 -14.6 °C -16.2 °C 1017.2 hPa East 17.7 km/h 29 km/h 87% 0 mm 125.00 W/m2
13:34 -14.5 °C -16.2 °C 1016.8 hPa East 14.5 km/h 29 km/h 87% 0 mm 135.00 W/m2
13:39 -14.4 °C -16.1 °C 1017.2 hPa East 9.7 km/h 27.4 km/h 87% 0 mm 130.00 W/m2
13:44 -14.3 °C -16 °C 1017.2 hPa East 16.1 km/h 27.4 km/h 87% 0 mm 128.00 W/m2
13:49 -14.2 °C -15.8 °C 1016.8 hPa East 8 km/h 19.3 km/h 88% 0 mm 130.00 W/m2
13:54 -14.1 °C -15.7 °C 1017.2 hPa East 9.7 km/h 22.5 km/h 88% 0 mm 127.00 W/m2
13:59 -14.1 °C -15.6 °C 1017.2 hPa East 11.3 km/h 22.5 km/h 88% 0 mm 123.00 W/m2
14:04 -13.9 °C -15.5 °C 1016.8 hPa ESE 16.1 km/h 20.9 km/h 88% 0 mm 118.00 W/m2
14:09 -13.9 °C -15.4 °C 1016.8 hPa East 17.7 km/h 20.9 km/h 88% 0 mm 116.00 W/m2
14:14 -13.8 °C -15.3 °C 1016.8 hPa East 14.5 km/h 20.9 km/h 88% 0 mm 120.00 W/m2
14:19 -13.8 °C -15.3 °C 1016.8 hPa East 11.3 km/h 22.5 km/h 88% 0 mm 127.00 W/m2
14:24 -13.7 °C -15.3 °C 1016.8 hPa East 16.1 km/h 24.1 km/h 88% 0 mm 120.00 W/m2
14:29 -13.7 °C -15.3 °C 1016.8 hPa East 9.7 km/h 24.1 km/h 88% 0 mm 116.00 W/m2
14:34 -13.7 °C -15.2 °C 1016.5 hPa East 12.9 km/h 22.5 km/h 88% 0 mm 121.00 W/m2
14:39 -13.6 °C -15.1 °C 1016.8 hPa East 11.3 km/h 22.5 km/h 88% 0 mm 121.00 W/m2
14:44 -13.5 °C -15.1 °C 1016.5 hPa East 11.3 km/h 17.7 km/h 88% 0 mm 123.00 W/m2
14:49 -13.4 °C -15 °C 1016.8 hPa East 9.7 km/h 16.1 km/h 88% 0 mm 127.00 W/m2
14:54 -13.4 °C -15 °C 1016.5 hPa ESE 6.4 km/h 16.1 km/h 88% 0 mm 127.00 W/m2
14:59 -13.3 °C -14.9 °C 1016.8 hPa East 9.7 km/h 16.1 km/h 88% 0 mm 121.00 W/m2
15:04 -13.3 °C -14.8 °C 1016.5 hPa East 12.9 km/h 20.9 km/h 88% 0 mm 116.00 W/m2
15:09 -13.3 °C -14.8 °C 1016.5 hPa East 12.9 km/h 20.9 km/h 88% 0 mm 128.00 W/m2
15:14 -13.3 °C -14.8 °C 1016.5 hPa East 12.9 km/h 17.7 km/h 88% 0 mm 123.00 W/m2
15:19 -13.2 °C -14.8 °C 1016.5 hPa ENE 8 km/h 16.1 km/h 88% 0 mm 116.00 W/m2
15:24 -13.1 °C -14.7 °C 1016.8 hPa East 12.9 km/h 16.1 km/h 88% 0 mm 100.00 W/m2
15:29 -13.1 °C -14.7 °C 1016.8 hPa East 11.3 km/h 16.1 km/h 88% 0 mm 91.00 W/m2
15:34 -13.2 °C -14.7 °C 1016.8 hPa ESE 12.9 km/h 16.1 km/h 88% 0 mm 91.00 W/m2
15:39 -13.2 °C -14.7 °C 1016.8 hPa East 12.9 km/h 16.1 km/h 88% 0 mm 84.00 W/m2
15:44 -13.2 °C -14.7 °C 1017.2 hPa ESE 8 km/h 16.1 km/h 88% 0 mm 77.00 W/m2
15:49 -13.2 °C -14.7 °C 1017.2 hPa ESE 6.4 km/h 14.5 km/h 88% 0 mm 70.00 W/m2
15:54 -13.2 °C -14.7 °C 1017.2 hPa SE 8 km/h 16.1 km/h 88% 0 mm 69.00 W/m2
15:59 -13.2 °C -14.8 °C 1017.2 hPa ESE 8 km/h 16.1 km/h 88% 0 mm 74.00 W/m2
16:04 -13.2 °C -14.8 °C 1017.2 hPa East 4.8 km/h 14.5 km/h 88% 0 mm 77.00 W/m2
16:09 -13.1 °C -14.7 °C 1017.5 hPa East 9.7 km/h 14.5 km/h 88% 0 mm 72.00 W/m2
16:14 -13.1 °C -14.7 °C 1017.5 hPa East 11.3 km/h 14.5 km/h 88% 0 mm 62.00 W/m2
16:19 -13.1 °C -14.7 °C 1017.5 hPa East 9.7 km/h 14.5 km/h 88% 0 mm 58.00 W/m2
16:24 -13.1 °C -14.7 °C 1017.5 hPa East 3.2 km/h 14.5 km/h 88% 0 mm 62.00 W/m2
16:29 -13.1 °C -14.6 °C 1017.5 hPa ESE 8 km/h 11.3 km/h 88% 0 mm 58.00 W/m2
16:34 -13.1 °C -14.6 °C 1017.5 hPa ESE 8 km/h 11.3 km/h 88% 0 mm 54.00 W/m2
16:39 -13.1 °C -14.6 °C 1017.5 hPa ESE 8 km/h 12.9 km/h 88% 0 mm 56.00 W/m2
16:44 -13 °C -14.6 °C 1017.8 hPa SE 3.2 km/h 12.9 km/h 88% 0 mm 60.00 W/m2
16:49 -12.9 °C -14.5 °C 1017.8 hPa ESE 6.4 km/h 9.7 km/h 88% 0 mm 49.00 W/m2
16:54 -12.9 °C -14.5 °C 1017.8 hPa ESE 4.8 km/h 8 km/h 88% 0 mm 40.00 W/m2
16:59 -12.9 °C -14.5 °C 1017.8 hPa ESE 4.8 km/h 8 km/h 88% 0 mm 35.00 W/m2
17:04 -12.9 °C -14.5 °C 1017.8 hPa ESE 4.8 km/h 6.4 km/h 88% 0 mm 30.00 W/m2
17:09 -13 °C -14.6 °C 1017.8 hPa ESE 4.8 km/h 6.4 km/h 88% 0 mm 19.00 W/m2
17:14 -13 °C -14.6 °C 1017.8 hPa ESE 4.8 km/h 6.4 km/h 88% 0 mm 14.00 W/m2
17:19 -13 °C -14.6 °C 1017.8 hPa ESE 3.2 km/h 6.4 km/h 88% 0 mm 12.00 W/m2
17:24 -13 °C -14.6 °C 1017.8 hPa ESE 1.6 km/h 6.4 km/h 88% 0 mm 12.00 W/m2
17:29 -13 °C -14.6 °C 1018.2 hPa ESE 3.2 km/h 4.8 km/h 88% 0 mm 11.00 W/m2
17:34 -13 °C -14.6 °C 1018.2 hPa ESE 3.2 km/h 4.8 km/h 88% 0 mm 11.00 W/m2
17:39 -13 °C -14.6 °C 1018.2 hPa ESE 1.6 km/h 4.8 km/h 88% 0 mm 7.00 W/m2
17:44 -13 °C -14.6 °C 1018.2 hPa Calm   3.2 km/h 88% 0 mm 5.00 W/m2
17:49 -13 °C -14.6 °C 1018.2 hPa Calm   1.6 km/h 88% 0 mm 5.00 W/m2
17:54 -13 °C -14.6 °C 1018.2 hPa Calm     88% 0 mm 0.00 W/m2
17:59 -13 °C -14.6 °C 1018.2 hPa Calm     88% 0 mm 0.00 W/m2
18:04 -13 °C -14.6 °C 1018.2 hPa Calm     88% 0 mm 0.00 W/m2
18:09 -13 °C -14.6 °C 1018.2 hPa Calm     88% 0 mm 0.00 W/m2
18:14 -13 °C -14.6 °C 1018.2 hPa ESE 1.6 km/h 3.2 km/h 88% 0 mm 0.00 W/m2
18:19 -13 °C -14.6 °C 1018.2 hPa ESE 3.2 km/h 3.2 km/h 88% 0 mm 0.00 W/m2
18:24 -13.1 °C -14.6 °C 1018.2 hPa Calm   3.2 km/h 88% 0 mm 0.00 W/m2
18:29 -13.1 °C -14.6 °C 1018.2 hPa Calm   3.2 km/h 88% 0 mm 0.00 W/m2
18:34 -13.1 °C -14.6 °C 1018.2 hPa Calm   3.2 km/h 88% 0 mm 0.00 W/m2
18:39 -13.1 °C -14.7 °C 1018.2 hPa ESE 1.6 km/h 3.2 km/h 88% 0 mm 0.00 W/m2
18:44 -13.1 °C -14.5 °C 1018.2 hPa ESE 1.6 km/h 3.2 km/h 89% 0 mm 0.00 W/m2
18:49 -13.1 °C -14.5 °C 1018.2 hPa Calm   3.2 km/h 89% 0 mm 0.00 W/m2
18:54 -13.1 °C -14.7 °C 1018.2 hPa Calm   1.6 km/h 88% 0 mm 0.00 W/m2
18:59 -13.2 °C -14.7 °C 1018.5 hPa Calm     88% 0 mm 0.00 W/m2
19:04 -13.2 °C -14.8 °C 1018.5 hPa ESE 1.6 km/h 1.6 km/h 88% 0 mm 0.00 W/m2
19:09 -13.2 °C -14.8 °C 1018.5 hPa ESE 3.2 km/h 3.2 km/h 88% 0 mm 0.00 W/m2
19:14 -13.3 °C -14.8 °C 1018.5 hPa ESE 1.6 km/h 4.8 km/h 88% 0 mm 0.00 W/m2
19:19 -13.3 °C -14.9 °C 1018.8 hPa WSW 3.2 km/h 4.8 km/h 88% 0 mm 0.00 W/m2
19:24 -13.3 °C -14.9 °C 1018.8 hPa West 3.2 km/h 4.8 km/h 88% 0 mm 0.00 W/m2
19:29 -13.3 °C -14.8 °C 1018.8 hPa West 4.8 km/h 4.8 km/h 89% 0 mm 0.00 W/m2
19:34 -13.4 °C -14.9 °C 1018.8 hPa West 4.8 km/h 6.4 km/h 89% 0 mm 0.00 W/m2
19:39 -13.4 °C -15 °C 1018.8 hPa West 4.8 km/h 6.4 km/h 88% 0 mm 0.00 W/m2
19:44 -13.4 °C -14.9 °C 1018.8 hPa WNW 4.8 km/h 6.4 km/h 89% 0 mm 0.00 W/m2
19:49 -13.4 °C -14.9 °C 1018.8 hPa West 4.8 km/h 6.4 km/h 89% 0 mm 0.00 W/m2
19:54 -13.4 °C -14.9 °C 1018.8 hPa West 4.8 km/h 6.4 km/h 89% 0 mm 0.00 W/m2
19:59 -13.5 °C -14.9 °C 1018.8 hPa West 3.2 km/h 6.4 km/h 89% 0 mm 0.00 W/m2
20:04 -13.5 °C -14.9 °C 1018.8 hPa West 4.8 km/h 8 km/h 89% 0 mm 0.00 W/m2
20:09 -13.6 °C -15 °C 1018.8 hPa West 3.2 km/h 8 km/h 89% 0 mm 0.00 W/m2
20:14 -13.6 °C -15.1 °C 1018.8 hPa West 4.8 km/h 6.4 km/h 89% 0 mm 0.00 W/m2
20:19 -13.6 °C -15 °C 1018.8 hPa West 6.4 km/h 6.4 km/h 89% 0 mm 0.00 W/m2
20:24 -13.6 °C -15.1 °C 1018.8 hPa West 6.4 km/h 8 km/h 89% 0 mm 0.00 W/m2
20:29 -13.6 °C -15.1 °C 1018.8 hPa WNW 6.4 km/h 9.7 km/h 89% 0 mm 0.00 W/m2
20:34 -13.7 °C -15.1 °C 1018.8 hPa WNW 6.4 km/h 9.7 km/h 89% 0 mm 0.00 W/m2
20:39 -13.7 °C -15.1 °C 1018.8 hPa WNW 4.8 km/h 9.7 km/h 89% 0 mm 0.00 W/m2
20:44 -13.7 °C -15.2 °C 1018.8 hPa WNW 4.8 km/h 8 km/h 89% 0 mm 0.00 W/m2
20:49 -13.7 °C -15.2 °C 1018.8 hPa WNW 6.4 km/h 8 km/h 89% 0 mm 0.00 W/m2
20:54 -13.7 °C -15.3 °C 1018.8 hPa WNW 4.8 km/h 8 km/h 88% 0 mm 0.00 W/m2
20:59 -13.8 °C -15.2 °C 1018.8 hPa WNW 4.8 km/h 8 km/h 89% 0 mm 0.00 W/m2
21:04 -13.8 °C -15.3 °C 1018.8 hPa WNW 4.8 km/h 8 km/h 88% 0 mm 0.00 W/m2
21:09 -13.8 °C -15.2 °C 1018.8 hPa WNW 8 km/h 9.7 km/h 89% 0 mm 0.00 W/m2
21:14 -13.8 °C -15.4 °C 1019.2 hPa West 8 km/h 14.5 km/h 88% 0 mm 0.00 W/m2
21:19 -13.9 °C -15.4 °C 1019.2 hPa WNW 11.3 km/h 16.1 km/h 88% 0 mm 0.00 W/m2
21:24 -14 °C -15.6 °C 1018.8 hPa WNW 14.5 km/h 17.7 km/h 88% 0 mm 0.00 W/m2
21:29 -14 °C -15.6 °C 1019.2 hPa WNW 6.4 km/h 17.7 km/h 88% 0 mm 0.00 W/m2
21:34 -14.1 °C -15.6 °C 1019.2 hPa WNW 9.7 km/h 16.1 km/h 88% 0 mm 0.00 W/m2
21:39 -14.2 °C -15.7 °C 1019.2 hPa WNW 11.3 km/h 14.5 km/h 88% 0 mm 0.00 W/m2
21:44 -14.3 °C -15.8 °C 1019.2 hPa WNW 11.3 km/h 14.5 km/h 88% 0 mm 0.00 W/m2
21:49 -14.4 °C -16.1 °C 1019.2 hPa WNW 9.7 km/h 14.5 km/h 87% 0 mm 0.00 W/m2
21:54 -14.7 °C -16.4 °C 1019.5 hPa WNW 11.3 km/h 14.5 km/h 87% 0 mm 0.00 W/m2
21:59 -15.1 °C -16.7 °C 1019.5 hPa WNW 9.7 km/h 14.5 km/h 87% 0 mm 0.00 W/m2
22:04 -15.5 °C -17.3 °C 1019.5 hPa West 9.7 km/h 14.5 km/h 86% 0 mm 0.00 W/m2
22:09 -15.8 °C -17.6 °C 1019.5 hPa WNW 12.9 km/h 16.1 km/h 86% 0 mm 0.00 W/m2
22:14 -16.2 °C -17.9 °C 1019.5 hPa WNW 11.3 km/h 16.1 km/h 86% 0 mm 0.00 W/m2
22:19 -16.4 °C -18.2 °C 1019.9 hPa WNW 8 km/h 16.1 km/h 86% 0 mm 0.00 W/m2
22:24 -16.7 °C -18.4 °C 1019.9 hPa West 11.3 km/h 12.9 km/h 86% 0 mm 0.00 W/m2
22:29 -17 °C -18.8 °C 1019.9 hPa West 9.7 km/h 12.9 km/h 86% 0 mm 0.00 W/m2
22:34 -17.1 °C -18.8 °C 1019.5 hPa WNW 9.7 km/h 12.9 km/h 86% 0 mm 0.00 W/m2
22:39 -16.8 °C -18.6 °C 1019.5 hPa WNW 9.7 km/h 14.5 km/h 86% 0 mm 0.00 W/m2
22:44 -16.7 °C -18.5 °C 1019.5 hPa WNW 8 km/h 16.1 km/h 86% 0 mm 0.00 W/m2
22:49 -16.8 °C -18.6 °C 1019.5 hPa WNW 8 km/h 16.1 km/h 86% 0 mm 0.00 W/m2
22:54 -17.4 °C -19.3 °C 1019.5 hPa West 9.7 km/h 11.3 km/h 85% 0 mm 0.00 W/m2
22:59 -18 °C -20.1 °C 1019.5 hPa WNW 6.4 km/h 11.3 km/h 84% 0 mm 0.00 W/m2
23:04 -18.2 °C -20.1 °C 1019.5 hPa WNW 9.7 km/h 12.9 km/h 85% 0 mm 0.00 W/m2
23:09 -17.8 °C -19.6 °C 1019.5 hPa WNW 9.7 km/h 14.5 km/h 86% 0 mm 0.00 W/m2
23:14 -18.1 °C -20 °C 1019.5 hPa WNW 8 km/h 14.5 km/h 85% 0 mm 0.00 W/m2
23:19 -18.3 °C -20.2 °C 1019.5 hPa NW 8 km/h 14.5 km/h 85% 0 mm 0.00 W/m2
23:24 -18.3 °C -20.2 °C 1019.5 hPa WNW 8 km/h 14.5 km/h 85% 0 mm 0.00 W/m2
23:29 -18.7 °C -20.6 °C 1019.5 hPa WNW 8 km/h 12.9 km/h 85% 0 mm 0.00 W/m2
23:34 -18.9 °C -20.8 °C 1019.5 hPa WNW 11.3 km/h 12.9 km/h 85% 0 mm 0.00 W/m2
23:39 -19 °C -20.9 °C 1019.5 hPa WNW 8 km/h 11.3 km/h 85% 0 mm 0.00 W/m2
23:44 -19.1 °C -20.9 °C 1019.5 hPa WNW 8 km/h 11.3 km/h 85% 0 mm 0.00 W/m2
23:49 -19.1 °C -21 °C 1019.5 hPa WNW 4.8 km/h 11.3 km/h 85% 0 mm 0.00 W/m2
23:54 -19.6 °C -21.6 °C 1019.5 hPa WNW 6.4 km/h 11.3 km/h 84% 0 mm 0.00 W/m2
23:59 -19.9 °C -21.9 °C 1019.5 hPa WNW 11.3 km/h 11.3 km/h 84% 0 mm 0.00 W/m2
Bismarck, North Dakota, USA
Compliments of Weather Underground - 4 mb